sensor_id;sensor_type;location;lat;lon;timestamp;pressure;altitude;pressure_sealevel;temperature;humidity
54407;BME280;40313;50.308;30.374;2024-03-17T00:00:43;99748.66;;;13.08;100.00
54407;BME280;40313;50.308;30.374;2024-03-17T00:03:09;99745.00;;;13.11;100.00
54407;BME280;40313;50.308;30.374;2024-03-17T00:05:35;99760.22;;;13.19;100.00
54407;BME280;40313;50.308;30.374;2024-03-17T00:08:01;99754.66;;;13.10;100.00
54407;BME280;40313;50.308;30.374;2024-03-17T00:10:30;99757.22;;;13.25;100.00
54407;BME280;40313;50.308;30.374;2024-03-17T00:13:00;99763.44;;;13.09;100.00
54407;BME280;40313;50.308;30.374;2024-03-17T00:15:32;99745.03;;;13.24;100.00
54407;BME280;40313;50.308;30.374;2024-03-17T00:17:58;99737.31;;;12.95;100.00
54407;BME280;40313;50.308;30.374;2024-03-17T00:20:24;99737.94;;;12.99;100.00
54407;BME280;40313;50.308;30.374;2024-03-17T00:22:53;99744.50;;;13.19;100.00
54407;BME280;40313;50.308;30.374;2024-03-17T00:25:19;99730.09;;;12.99;100.00
54407;BME280;40313;50.308;30.374;2024-03-17T00:27:45;99747.84;;;13.08;100.00
54407;BME280;40313;50.308;30.374;2024-03-17T00:30:20;99711.75;;;12.71;100.00
54407;BME280;40313;50.308;30.374;2024-03-17T00:32:51;99743.22;;;13.11;100.00
54407;BME280;40313;50.308;30.374;2024-03-17T00:35:17;99698.09;;;12.81;100.00
54407;BME280;40313;50.308;30.374;2024-03-17T00:37:46;99728.22;;;13.01;100.00
54407;BME280;40313;50.308;30.374;2024-03-17T00:40:11;99732.31;;;13.05;100.00
54407;BME280;40313;50.308;30.374;2024-03-17T00:42:38;99728.75;;;13.06;100.00
54407;BME280;40313;50.308;30.374;2024-03-17T00:45:04;99723.41;;;13.07;100.00
54407;BME280;40313;50.308;30.374;2024-03-17T00:47:33;99714.16;;;13.02;100.00
54407;BME280;40313;50.308;30.374;2024-03-17T00:50:00;99724.31;;;12.93;100.00
54407;BME280;40313;50.308;30.374;2024-03-17T00:52:27;99723.47;;;12.93;100.00
54407;BME280;40313;50.308;30.374;2024-03-17T00:54:57;99718.56;;;13.01;100.00
54407;BME280;40313;50.308;30.374;2024-03-17T00:57:27;99715.53;;;13.07;100.00
54407;BME280;40313;50.308;30.374;2024-03-17T00:59:52;99723.78;;;12.88;100.00
54407;BME280;40313;50.308;30.374;2024-03-17T01:02:19;99702.03;;;13.01;100.00
54407;BME280;40313;50.308;30.374;2024-03-17T01:04:47;99693.31;;;13.00;100.00
54407;BME280;40313;50.308;30.374;2024-03-17T01:07:15;99681.31;;;12.83;100.00
54407;BME280;40313;50.308;30.374;2024-03-17T01:09:42;99677.78;;;12.84;100.00
54407;BME280;40313;50.308;30.374;2024-03-17T01:12:08;99659.06;;;12.90;100.00
54407;BME280;40313;50.308;30.374;2024-03-17T01:14:35;99671.72;;;12.84;100.00
54407;BME280;40313;50.308;30.374;2024-03-17T01:17:01;99656.50;;;12.76;100.00
54407;BME280;40313;50.308;30.374;2024-03-17T01:19:30;99695.31;;;12.96;100.00
54407;BME280;40313;50.308;30.374;2024-03-17T01:21:56;99661.59;;;12.92;100.00
54407;BME280;40313;50.308;30.374;2024-03-17T01:24:26;99657.03;;;12.81;100.00
54407;BME280;40313;50.308;30.374;2024-03-17T01:26:57;99674.50;;;13.08;100.00
54407;BME280;40313;50.308;30.374;2024-03-17T01:29:23;99668.50;;;13.06;100.00
54407;BME280;40313;50.308;30.374;2024-03-17T01:31:49;99665.72;;;13.09;100.00
54407;BME280;40313;50.308;30.374;2024-03-17T01:34:16;99684.78;;;13.24;100.00
54407;BME280;40313;50.308;30.374;2024-03-17T01:36:41;99688.78;;;13.29;100.00
54407;BME280;40313;50.308;30.374;2024-03-17T01:39:08;99676.38;;;13.19;100.00
54407;BME280;40313;50.308;30.374;2024-03-17T01:41:35;99689.69;;;13.16;100.00
54407;BME280;40313;50.308;30.374;2024-03-17T01:44:03;99667.16;;;13.13;100.00
54407;BME280;40313;50.308;30.374;2024-03-17T01:46:29;99684.06;;;13.22;100.00
54407;BME280;40313;50.308;30.374;2024-03-17T01:48:58;99657.94;;;13.07;100.00
54407;BME280;40313;50.308;30.374;2024-03-17T01:51:25;99668.88;;;13.27;100.00
54407;BME280;40313;50.308;30.374;2024-03-17T01:53:51;99653.00;;;13.03;100.00
54407;BME280;40313;50.308;30.374;2024-03-17T01:56:19;99674.09;;;13.14;100.00
54407;BME280;40313;50.308;30.374;2024-03-17T01:58:50;99640.66;;;13.05;100.00
54407;BME280;40313;50.308;30.374;2024-03-17T02:01:17;99644.75;;;13.09;100.00
54407;BME280;40313;50.308;30.374;2024-03-17T02:03:43;99666.34;;;13.25;100.00
54407;BME280;40313;50.308;30.374;2024-03-17T02:06:09;99643.47;;;13.02;100.00
54407;BME280;40313;50.308;30.374;2024-03-17T02:08:46;99662.91;;;13.25;100.00
54407;BME280;40313;50.308;30.374;2024-03-17T02:11:25;99670.75;;;13.12;100.00
54407;BME280;40313;50.308;30.374;2024-03-17T02:13:55;99633.19;;;12.99;100.00
54407;BME280;40313;50.308;30.374;2024-03-17T02:16:22;99624.59;;;12.84;100.00
54407;BME280;40313;50.308;30.374;2024-03-17T02:18:48;99642.13;;;13.09;100.00
54407;BME280;40313;50.308;30.374;2024-03-17T02:21:15;99636.56;;;13.01;100.00
54407;BME280;40313;50.308;30.374;2024-03-17T02:23:43;99655.16;;;13.23;100.00
54407;BME280;40313;50.308;30.374;2024-03-17T02:26:09;99663.53;;;13.28;100.00
54407;BME280;40313;50.308;30.374;2024-03-17T02:28:40;99632.38;;;13.11;100.00
54407;BME280;40313;50.308;30.374;2024-03-17T02:31:07;99623.13;;;12.92;100.00
54407;BME280;40313;50.308;30.374;2024-03-17T02:33:34;99650.84;;;13.22;100.00
54407;BME280;40313;50.308;30.374;2024-03-17T02:36:00;99656.09;;;13.22;100.00
54407;BME280;40313;50.308;30.374;2024-03-17T02:38:29;99671.25;;;13.17;100.00
54407;BME280;40313;50.308;30.374;2024-03-17T02:41:18;99659.84;;;13.31;100.00
54407;BME280;40313;50.308;30.374;2024-03-17T02:43:48;99615.94;;;12.96;100.00
54407;BME280;40313;50.308;30.374;2024-03-17T02:46:16;99626.09;;;13.01;100.00
54407;BME280;40313;50.308;30.374;2024-03-17T02:48:45;99628.59;;;13.02;100.00
54407;BME280;40313;50.308;30.374;2024-03-17T02:51:14;99647.28;;;13.23;100.00
54407;BME280;40313;50.308;30.374;2024-03-17T02:53:41;99616.88;;;12.95;100.00
54407;BME280;40313;50.308;30.374;2024-03-17T02:56:08;99644.75;;;13.09;100.00
54407;BME280;40313;50.308;30.374;2024-03-17T02:58:36;99641.50;;;13.18;100.00
54407;BME280;40313;50.308;30.374;2024-03-17T03:01:04;99626.31;;;13.10;100.00
54407;BME280;40313;50.308;30.374;2024-03-17T03:03:31;99616.78;;;13.09;100.00
54407;BME280;40313;50.308;30.374;2024-03-17T03:06:06;99598.19;;;12.74;100.00
54407;BME280;40313;50.308;30.374;2024-03-17T03:08:34;99633.94;;;13.01;100.00
54407;BME280;40313;50.308;30.374;2024-03-17T03:11:03;99613.34;;;12.69;100.00
54407;BME280;40313;50.308;30.374;2024-03-17T03:13:31;99624.31;;;12.61;100.00
54407;BME280;40313;50.308;30.374;2024-03-17T03:15:59;99623.69;;;12.98;100.00
54407;BME280;40313;50.308;30.374;2024-03-17T03:18:28;99614.59;;;13.03;100.00
54407;BME280;40313;50.308;30.374;2024-03-17T03:20:55;99628.06;;;12.97;100.00
54407;BME280;40313;50.308;30.374;2024-03-17T03:23:21;99612.88;;;12.89;100.00
54407;BME280;40313;50.308;30.374;2024-03-17T03:25:54;99632.66;;;12.81;100.00
54407;BME280;40313;50.308;30.374;2024-03-17T03:28:20;99634.41;;;12.80;100.00
54407;BME280;40313;50.308;30.374;2024-03-17T03:30:46;99610.38;;;12.88;100.00
54407;BME280;40313;50.308;30.374;2024-03-17T03:33:14;99602.03;;;12.68;100.00
54407;BME280;40313;50.308;30.374;2024-03-17T03:35:43;99623.22;;;12.78;100.00
54407;BME280;40313;50.308;30.374;2024-03-17T03:38:10;99624.75;;;12.68;100.00
54407;BME280;40313;50.308;30.374;2024-03-17T03:40:38;99620.53;;;12.52;100.00
54407;BME280;40313;50.308;30.374;2024-03-17T03:43:05;99587.66;;;12.21;100.00
54407;BME280;40313;50.308;30.374;2024-03-17T03:45:33;99621.56;;;12.50;100.00
54407;BME280;40313;50.308;30.374;2024-03-17T03:48:00;99613.75;;;12.35;100.00
54407;BME280;40313;50.308;30.374;2024-03-17T03:50:29;99615.03;;;12.42;100.00
54407;BME280;40313;50.308;30.374;2024-03-17T03:52:56;99611.47;;;12.16;100.00
54407;BME280;40313;50.308;30.374;2024-03-17T03:55:23;99613.66;;;12.37;100.00
54407;BME280;40313;50.308;30.374;2024-03-17T03:57:50;99623.03;;;12.26;100.00
54407;BME280;40313;50.308;30.374;2024-03-17T04:00:18;99603.03;;;12.25;100.00
54407;BME280;40313;50.308;30.374;2024-03-17T04:02:47;99620.47;;;12.39;100.00
54407;BME280;40313;50.308;30.374;2024-03-17T04:05:14;99616.81;;;12.42;100.00
54407;BME280;40313;50.308;30.374;2024-03-17T04:07:46;99627.13;;;12.31;100.00
